createdAt,value
2023-02-23T06:09:30.394Z,92.09
2023-02-23T06:10:32.436Z,92.09
2023-02-23T06:11:34.492Z,91.99
2023-02-23T06:12:36.469Z,92.09
2023-02-23T06:13:38.466Z,91.99
2023-02-23T06:14:40.488Z,91.99
2023-02-23T06:15:42.576Z,92.19
2023-02-23T06:16:44.721Z,92.19
2023-02-23T06:17:45.685Z,92.29
2023-02-23T06:18:47.690Z,92.50
2023-02-23T06:19:49.702Z,92.40
2023-02-23T06:20:51.703Z,92.40
2023-02-23T06:21:53.740Z,92.40
2023-02-23T06:22:55.760Z,92.29
2023-02-23T06:23:58.459Z,92.29
2023-02-23T06:24:59.362Z,92.19
2023-02-23T06:26:01.367Z,92.19
2023-02-23T06:27:03.395Z,92.19
2023-02-23T06:28:05.390Z,91.94
2023-02-23T06:29:07.392Z,91.84
2023-02-23T06:30:09.422Z,91.74
2023-02-23T06:31:11.518Z,91.74
2023-02-23T06:32:13.666Z,91.63
2023-02-23T06:33:15.670Z,91.63
2023-02-23T06:34:17.690Z,91.43
2023-02-23T06:35:19.713Z,91.43
2023-02-23T06:36:21.727Z,91.18
2023-02-23T06:37:23.767Z,91.08
2023-02-23T06:38:25.757Z,90.97
2023-02-23T06:39:27.796Z,90.87
2023-02-23T06:40:29.821Z,90.67
2023-02-23T06:41:31.843Z,90.67
2023-02-23T06:42:33.873Z,90.77
2023-02-23T06:43:35.873Z,90.77
2023-02-23T06:44:37.876Z,90.77
2023-02-23T06:45:39.878Z,90.67
2023-02-23T06:46:51.126Z,90.77
2023-02-23T06:47:43.194Z,90.67
2023-02-23T06:48:45.237Z,90.57
2023-02-23T06:49:47.229Z,90.57
2023-02-23T06:50:49.228Z,90.46
2023-02-23T06:51:51.231Z,90.46
2023-02-23T06:52:53.239Z,90.36
2023-02-23T06:53:55.264Z,90.46
2023-02-23T06:54:57.268Z,90.46
2023-02-23T06:55:59.239Z,90.57
2023-02-23T06:57:01.236Z,90.57
2023-02-23T06:58:03.263Z,90.77
2023-02-23T06:59:05.263Z,90.77
2023-02-23T07:00:07.296Z,90.67
2023-02-23T07:01:09.308Z,90.46
2023-02-23T07:02:11.332Z,90.42
2023-02-23T07:03:13.405Z,90.31
2023-02-23T07:04:16.883Z,90.31
2023-02-23T07:05:16.770Z,90.21
2023-02-23T07:06:18.776Z,89.91
2023-02-23T07:07:20.762Z,89.76
2023-02-23T07:08:22.777Z,89.66
2023-02-23T07:09:24.802Z,89.66
2023-02-23T07:10:26.825Z,89.66
2023-02-23T07:11:28.849Z,89.66
2023-02-23T07:12:30.853Z,89.66
2023-02-23T07:13:32.890Z,89.66
2023-02-23T07:14:34.889Z,89.76
2023-02-23T07:15:36.901Z,89.56
2023-02-23T07:16:38.997Z,89.45
2023-02-23T07:17:41.037Z,89.35
2023-02-23T07:18:43.083Z,89.35
2023-02-23T07:19:45.113Z,89.20
2023-02-23T07:20:47.148Z,89.11
2023-02-23T07:21:49.175Z,88.80
2023-02-23T07:22:51.198Z,88.90
2023-02-23T07:23:53.210Z,88.80
2023-02-23T07:24:55.233Z,88.90
2023-02-23T07:25:57.234Z,88.75
2023-02-23T07:26:59.261Z,88.75
2023-02-23T07:28:01.253Z,88.65
2023-02-23T07:29:03.279Z,88.65
2023-02-23T07:30:05.263Z,88.75
2023-02-23T07:31:07.350Z,88.40
2023-02-23T07:32:09.412Z,88.10
2023-02-23T07:33:11.463Z,88.00
2023-02-23T07:34:13.494Z,88.00
2023-02-23T07:35:15.504Z,87.79
2023-02-23T07:36:17.530Z,87.69
2023-02-23T07:37:19.564Z,87.59
2023-02-23T07:38:21.577Z,87.59
2023-02-23T07:39:23.605Z,87.69
2023-02-23T07:40:25.623Z,87.69
2023-02-23T07:41:27.647Z,87.44
2023-02-23T07:42:29.621Z,87.34
2023-02-23T07:43:31.642Z,87.13
2023-02-23T07:44:33.701Z,87.09
2023-02-23T07:45:35.741Z,86.58
2023-02-23T07:46:37.752Z,86.58
2023-02-23T07:47:39.767Z,86.48
2023-02-23T07:48:41.805Z,86.38
2023-02-23T07:49:43.872Z,86.27
2023-02-23T07:50:45.883Z,85.93
2023-02-23T07:51:47.940Z,85.72
2023-02-23T07:52:49.953Z,85.82
2023-02-23T07:53:51.959Z,85.82
2023-02-23T07:54:53.978Z,85.31
2023-02-23T07:55:56.015Z,85.62
2023-02-23T07:56:58.029Z,85.52
2023-02-23T07:58:00.067Z,85.66
2023-02-23T07:59:02.096Z,85.87
2023-02-23T08:00:04.259Z,86.27
2023-02-23T08:01:06.350Z,86.17
2023-02-23T08:02:09.343Z,86.41
2023-02-23T08:03:10.261Z,87.03
2023-02-23T08:04:12.320Z,87.03
2023-02-23T08:05:14.337Z,86.93
2023-02-23T08:06:16.335Z,86.73
2023-02-23T08:07:18.358Z,86.38
2023-02-23T08:08:20.383Z,86.48
2023-02-23T08:09:22.403Z,86.48
2023-02-23T08:10:24.478Z,86.44
2023-02-23T08:11:26.488Z,86.34
2023-02-23T08:12:28.506Z,85.88
2023-02-23T08:13:30.542Z,85.68
2023-02-23T08:14:32.556Z,85.47
2023-02-23T08:15:34.607Z,85.23
2023-02-23T08:16:36.679Z,85.13
2023-02-23T08:17:38.678Z,85.03
2023-02-23T08:18:40.762Z,84.72
2023-02-23T08:19:42.771Z,84.27
2023-02-23T08:20:44.873Z,84.27
2023-02-23T08:21:46.899Z,84.58
2023-02-23T08:22:50.134Z,84.06
2023-02-23T08:23:51.047Z,83.66
2023-02-23T08:24:53.058Z,84.17
2023-02-23T08:25:55.100Z,83.31
2023-02-23T08:26:57.112Z,83.21
2023-02-23T08:27:59.127Z,83.31
2023-02-23T08:29:01.138Z,83.38
2023-02-23T08:30:03.150Z,82.97
2023-02-23T08:31:05.223Z,82.86
2023-02-23T08:32:07.416Z,82.04
2023-02-23T08:33:08.380Z,82.11
2023-02-23T08:34:10.418Z,81.90
2023-02-23T08:35:12.421Z,81.70
2023-02-23T08:36:14.455Z,81.81
2023-02-23T08:37:16.507Z,81.56
2023-02-23T08:38:18.664Z,81.87
2023-02-23T08:39:20.711Z,80.85
2023-02-23T08:40:22.822Z,80.88
2023-02-23T08:41:24.897Z,81.60
2023-02-23T08:42:26.935Z,81.81
2023-02-23T08:43:28.946Z,81.81
2023-02-23T08:44:30.967Z,81.26
2023-02-23T08:45:32.981Z,81.15
2023-02-23T08:46:35.001Z,81.36
2023-02-23T08:47:37.032Z,80.95
2023-02-23T08:48:39.051Z,81.12
2023-02-23T08:49:41.084Z,80.91
2023-02-23T08:50:43.110Z,80.71
2023-02-23T08:51:45.137Z,80.46
2023-02-23T08:52:47.151Z,80.67
2023-02-23T08:53:50.012Z,80.06
2023-02-23T08:54:50.922Z,80.33
2023-02-23T08:55:52.938Z,79.51
2023-02-23T08:56:54.979Z,79.62
2023-02-23T08:57:56.963Z,80.09
2023-02-23T08:58:59.000Z,79.27
2023-02-23T09:00:01.018Z,78.86
2023-02-23T09:01:03.081Z,79.17
2023-02-23T09:02:05.408Z,78.76
2023-02-23T09:03:06.379Z,78.01
2023-02-23T09:04:08.455Z,77.70
2023-02-23T09:05:10.525Z,77.60
2023-02-23T09:06:12.540Z,78.18
2023-02-23T09:07:14.586Z,78.28
2023-02-23T09:08:16.610Z,77.47
2023-02-23T09:09:18.625Z,76.14
2023-02-23T09:10:20.649Z,75.90
2023-02-23T09:11:22.700Z,75.70
2023-02-23T09:12:24.791Z,75.90
2023-02-23T09:13:26.814Z,75.80
2023-02-23T09:14:28.843Z,74.95
2023-02-23T09:15:30.848Z,74.54
2023-02-23T09:16:32.870Z,74.10
2023-02-23T09:17:34.920Z,73.76
2023-02-23T09:18:36.969Z,73.12
2023-02-23T09:19:38.957Z,73.32
2023-02-23T09:20:40.992Z,72.58
2023-02-23T09:21:43.017Z,71.63
2023-02-23T09:22:45.093Z,71.94
2023-02-23T09:23:47.117Z,70.58
2023-02-23T09:24:49.160Z,70.69
2023-02-23T09:25:51.929Z,70.89
2023-02-23T09:26:52.805Z,70.89
2023-02-23T09:27:54.848Z,71.16
2023-02-23T09:28:56.849Z,69.74
2023-02-23T09:29:58.867Z,69.74
2023-02-23T09:31:00.998Z,69.74
2023-02-23T09:32:03.140Z,70.78
2023-02-23T09:33:05.150Z,69.87
2023-02-23T09:34:07.187Z,69.67
2023-02-23T09:35:09.215Z,69.87
2023-02-23T09:36:11.247Z,69.67
2023-02-23T09:37:13.265Z,70.08
2023-02-23T09:38:15.279Z,70.89
2023-02-23T09:39:20.355Z,70.08
2023-02-23T09:40:18.719Z,70.01
2023-02-23T09:41:20.753Z,70.31
2023-02-23T09:42:22.724Z,70.21
2023-02-23T09:43:24.789Z,70.52
2023-02-23T09:44:26.817Z,71.13
2023-02-23T09:45:28.841Z,71.33
2023-02-23T09:46:30.896Z,70.82
2023-02-23T09:47:32.929Z,70.92
2023-02-23T09:48:34.955Z,71.36
2023-02-23T09:49:36.973Z,71.77
2023-02-23T09:50:39.013Z,72.17
2023-02-23T09:51:41.068Z,71.66
2023-02-23T09:52:43.096Z,71.60
2023-02-23T09:53:45.466Z,72.10
2023-02-23T09:54:46.599Z,72.31
2023-02-23T09:55:48.597Z,72.51
2023-02-23T09:56:50.636Z,72.61
2023-02-23T09:57:52.651Z,72.41
2023-02-23T09:58:54.710Z,72.00
2023-02-23T09:59:56.732Z,72.61
2023-02-23T10:00:58.758Z,72.10
2023-02-23T10:02:00.796Z,72.21
2023-02-23T10:03:02.819Z,72.00
2023-02-23T10:04:04.843Z,71.97
2023-02-23T10:05:06.892Z,71.77
2023-02-23T10:06:08.893Z,71.90
2023-02-23T10:07:10.936Z,72.31
2023-02-23T10:08:12.945Z,72.21
2023-02-23T10:09:14.990Z,72.58
2023-02-23T10:10:17.135Z,71.97
2023-02-23T10:11:19.436Z,72.27
2023-02-23T10:12:20.417Z,72.07
2023-02-23T10:13:22.488Z,72.14
2023-02-23T10:14:24.540Z,71.02
2023-02-23T10:15:26.560Z,70.69
2023-02-23T10:16:28.592Z,70.58
2023-02-23T10:17:30.615Z,70.69
2023-02-23T10:18:45.796Z,70.38
2023-02-23T10:19:34.099Z,71.19
2023-02-23T10:20:36.114Z,70.69
2023-02-23T10:21:38.136Z,70.41
2023-02-23T10:22:40.193Z,70.41
2023-02-23T10:23:42.233Z,70.28
2023-02-23T10:24:44.330Z,70.18
2023-02-23T10:25:46.324Z,69.87
2023-02-23T10:26:48.407Z,69.84
2023-02-23T10:27:50.447Z,70.55
2023-02-23T10:28:52.496Z,69.74
2023-02-23T10:29:54.519Z,69.94
2023-02-23T10:30:56.655Z,70.31
2023-02-23T10:31:58.808Z,69.43
2023-02-23T10:32:59.788Z,69.43
2023-02-23T10:34:01.804Z,70.14
2023-02-23T10:35:03.826Z,69.23
2023-02-23T10:36:13.207Z,69.94
2023-02-23T10:37:07.286Z,69.54
2023-02-23T10:38:09.267Z,70.08
2023-02-23T10:39:11.283Z,70.48
2023-02-23T10:40:13.311Z,70.11
2023-02-23T10:41:15.344Z,71.02
2023-02-23T10:42:17.359Z,70.52
2023-02-23T10:43:19.410Z,69.60
2023-02-23T10:44:21.416Z,70.18
2023-02-23T10:45:24.725Z,70.18
2023-02-23T10:46:24.673Z,69.94
2023-02-23T10:47:26.684Z,70.25
2023-02-23T10:48:28.861Z,70.34
2023-02-23T10:49:30.865Z,69.54
2023-02-23T10:50:32.875Z,68.82
2023-02-23T10:51:34.884Z,68.90
2023-02-23T10:52:41.586Z,69.20
2023-02-23T10:53:38.286Z,68.26
2023-02-23T10:54:40.317Z,69.10
2023-02-23T10:55:42.381Z,69.00
2023-02-23T10:56:44.404Z,69.40
2023-02-23T10:57:46.425Z,69.37
2023-02-23T10:58:48.469Z,68.06
2023-02-23T10:59:50.492Z,68.02
2023-02-23T11:00:52.525Z,67.41
2023-02-23T11:02:01.920Z,67.31
2023-02-23T11:02:55.956Z,67.41
2023-02-23T11:04:05.958Z,67.68
2023-02-23T11:04:59.515Z,67.48
2023-02-23T11:06:01.521Z,67.18
2023-02-23T11:07:03.598Z,67.59
2023-02-23T11:08:05.640Z,67.48
2023-02-23T11:09:07.678Z,67.08
2023-02-23T11:10:09.715Z,67.76
2023-02-23T11:11:11.816Z,67.28
2023-02-23T11:12:13.844Z,67.62
2023-02-23T11:13:15.883Z,67.95
2023-02-23T11:14:17.957Z,68.15
2023-02-23T11:15:20.023Z,68.69
2023-02-23T11:16:22.139Z,69.10
2023-02-23T11:17:24.310Z,69.40
2023-02-23T11:18:26.435Z,69.23
2023-02-23T11:19:28.435Z,69.74
2023-02-23T11:20:30.448Z,70.05
2023-02-23T11:21:32.467Z,69.97
2023-02-23T11:22:34.481Z,69.87
2023-02-23T11:23:36.514Z,69.54
2023-02-23T11:24:38.541Z,69.03
2023-02-23T11:25:40.570Z,69.00
2023-02-23T11:26:42.653Z,69.10
2023-02-23T11:27:44.649Z,68.69
2023-02-23T11:28:46.689Z,68.69
2023-02-23T11:29:48.712Z,68.90
2023-02-23T11:30:50.752Z,68.90
2023-02-23T11:31:52.909Z,68.39
2023-02-23T11:32:53.895Z,68.18
2023-02-23T11:33:55.926Z,68.06
2023-02-23T11:34:57.947Z,68.35
2023-02-23T11:35:59.969Z,67.41
2023-02-23T11:37:02.008Z,67.21
2023-02-23T11:38:05.520Z,66.57
2023-02-23T11:39:05.346Z,66.27
2023-02-23T11:40:07.343Z,66.50
2023-02-23T11:41:09.365Z,66.40
2023-02-23T11:42:11.397Z,66.97
2023-02-23T11:43:13.433Z,66.47
2023-02-23T11:44:15.455Z,67.08
2023-02-23T11:45:17.477Z,66.34
2023-02-23T11:46:19.981Z,66.84
2023-02-23T11:47:21.091Z,66.54
2023-02-23T11:48:23.100Z,65.73
2023-02-23T11:49:25.131Z,65.63
2023-02-23T11:50:27.168Z,65.86
2023-02-23T11:51:29.182Z,66.27
2023-02-23T11:52:31.228Z,66.27
2023-02-23T11:53:42.470Z,65.86
2023-02-23T11:54:34.636Z,65.76
2023-02-23T11:55:36.647Z,65.86
2023-02-23T11:56:38.676Z,66.17
2023-02-23T11:57:40.722Z,66.37
2023-02-23T11:58:42.729Z,66.71
2023-02-23T11:59:46.234Z,66.77
2023-02-23T12:00:45.867Z,66.37
2023-02-23T12:01:47.886Z,66.77
2023-02-23T12:02:49.968Z,66.84
2023-02-23T12:03:51.954Z,66.34
2023-02-23T12:04:54.003Z,66.24
2023-02-23T12:05:56.009Z,65.33
2023-02-23T12:06:58.052Z,65.13
2023-02-23T12:08:00.218Z,65.13
2023-02-23T12:09:01.205Z,65.53
2023-02-23T12:10:03.247Z,66.13
2023-02-23T12:11:05.271Z,66.34
2023-02-23T12:12:07.293Z,65.73
2023-02-23T12:13:09.361Z,66.37
2023-02-23T12:14:11.383Z,66.88
2023-02-23T12:15:13.414Z,66.88
2023-02-23T12:16:15.466Z,66.97
2023-02-23T12:17:17.463Z,67.08
2023-02-23T12:18:19.509Z,66.57
2023-02-23T12:19:21.540Z,66.37
2023-02-23T12:20:23.579Z,66.71
2023-02-23T12:21:25.614Z,66.50
2023-02-23T12:22:27.656Z,66.07
2023-02-23T12:23:29.768Z,65.89
2023-02-23T12:24:31.812Z,66.50
2023-02-23T12:25:33.839Z,66.50
2023-02-23T12:26:35.865Z,67.01
2023-02-23T12:27:37.906Z,66.74
2023-02-23T12:28:39.974Z,66.94
2023-02-23T12:29:42.001Z,67.14
2023-02-23T12:30:44.034Z,67.07
2023-02-23T12:31:46.097Z,67.38
2023-02-23T12:32:48.156Z,67.81
2023-02-23T12:33:50.193Z,67.81
2023-02-23T12:34:52.210Z,68.32
2023-02-23T12:35:54.246Z,68.56
2023-02-23T12:36:56.288Z,68.25
2023-02-23T12:37:58.319Z,68.25
2023-02-23T12:39:00.342Z,68.45
2023-02-23T12:40:03.283Z,68.86
2023-02-23T12:41:04.222Z,69.37
2023-02-23T12:42:05.321Z,69.57
2023-02-23T12:43:07.331Z,70.11
2023-02-23T12:44:09.353Z,69.90
2023-02-23T12:45:11.390Z,70.21
2023-02-23T12:46:13.495Z,70.41
2023-02-23T12:47:15.493Z,70.62
2023-02-23T12:48:17.521Z,70.62
2023-02-23T12:49:19.565Z,70.72
2023-02-23T12:50:21.579Z,71.26
2023-02-23T12:51:23.606Z,71.16
2023-02-23T12:52:25.643Z,71.36
2023-02-23T12:53:27.685Z,71.46
2023-02-23T12:54:29.722Z,71.66
2023-02-23T12:55:31.741Z,71.66
2023-02-23T12:56:33.775Z,71.87
2023-02-23T12:57:35.786Z,72.17
2023-02-23T12:58:37.799Z,72.31
2023-02-23T12:59:39.842Z,72.31
2023-02-23T13:00:41.856Z,72.51
2023-02-23T13:01:43.908Z,72.51
2023-02-23T13:02:45.943Z,72.91
2023-02-23T13:03:47.948Z,72.71
2023-02-23T13:04:49.991Z,72.71
2023-02-23T13:05:52.032Z,72.91
2023-02-23T13:06:54.053Z,72.61
2023-02-23T13:08:04.731Z,72.41
2023-02-23T13:08:57.496Z,72.61
2023-02-23T13:09:59.535Z,72.51
2023-02-23T13:11:01.563Z,72.51
2023-02-23T13:12:03.593Z,72.61
2023-02-23T13:13:05.644Z,72.31
2023-02-23T13:14:07.644Z,72.14
2023-02-23T13:15:09.672Z,72.44
2023-02-23T13:16:11.705Z,72.65
2023-02-23T13:17:13.721Z,72.85
2023-02-23T13:18:15.750Z,73.46
2023-02-23T13:19:17.747Z,73.46
2023-02-23T13:20:19.775Z,72.95
2023-02-23T13:21:21.933Z,73.76
2023-02-23T13:22:23.902Z,73.46
2023-02-23T13:23:25.907Z,73.05
2023-02-23T13:24:27.950Z,72.95
2023-02-23T13:25:30.005Z,72.95
2023-02-23T13:26:32.011Z,72.75
2023-02-23T13:27:34.082Z,73.46
2023-02-23T13:28:36.137Z,73.56
2023-02-23T13:29:38.179Z,73.80
2023-02-23T13:30:40.375Z,74.10
2023-02-23T13:31:42.629Z,74.31
2023-02-23T13:32:43.603Z,74.10
2023-02-23T13:33:45.593Z,73.90
2023-02-23T13:34:47.628Z,75.02
2023-02-23T13:35:49.656Z,74.61
2023-02-23T13:36:51.689Z,74.71
2023-02-23T13:37:53.703Z,74.71
2023-02-23T13:38:55.784Z,74.61
2023-02-23T13:39:57.817Z,74.71
2023-02-23T13:40:59.961Z,75.12
2023-02-23T13:42:01.995Z,75.22
2023-02-23T13:43:04.028Z,74.31
2023-02-23T13:44:06.039Z,74.51
2023-02-23T13:45:08.058Z,74.51
2023-02-23T13:46:10.147Z,74.27
2023-02-23T13:47:12.163Z,74.27
2023-02-23T13:48:14.177Z,74.51
2023-02-23T13:49:16.199Z,74.71
2023-02-23T13:50:18.204Z,74.82
2023-02-23T13:51:20.569Z,74.92
2023-02-23T13:52:21.725Z,75.12
2023-02-23T13:53:23.747Z,74.48
2023-02-23T13:54:25.774Z,74.07
2023-02-23T13:55:32.693Z,74.07
2023-02-23T13:56:29.210Z,74.07
2023-02-23T13:57:31.233Z,74.37
2023-02-23T13:58:33.216Z,74.17
2023-02-23T13:59:35.244Z,74.37
2023-02-23T14:00:37.289Z,74.48
2023-02-23T14:01:39.481Z,74.98
2023-02-23T14:02:40.536Z,75.09
2023-02-23T14:03:42.531Z,74.88
2023-02-23T14:04:44.578Z,74.98
2023-02-23T14:05:46.720Z,74.92
2023-02-23T14:06:48.801Z,74.98
2023-02-23T14:07:50.797Z,75.12
2023-02-23T14:08:52.838Z,74.78
2023-02-23T14:09:54.874Z,75.02
2023-02-23T14:10:56.895Z,75.12
2023-02-23T14:11:58.938Z,75.22
2023-02-23T14:13:01.852Z,75.02
2023-02-23T14:14:02.770Z,75.42
2023-02-23T14:15:04.778Z,75.53
2023-02-23T14:16:06.832Z,75.42
2023-02-23T14:17:08.854Z,76.03
2023-02-23T14:18:10.872Z,75.83
2023-02-23T14:19:12.887Z,75.97
2023-02-23T14:20:24.361Z,76.17
2023-02-23T14:21:16.324Z,76.58
2023-02-23T14:22:18.371Z,76.41
2023-02-23T14:23:20.418Z,76.61
2023-02-23T14:24:22.442Z,76.61
2023-02-23T14:25:24.455Z,76.82
2023-02-23T14:26:26.486Z,76.48
2023-02-23T14:27:40.724Z,76.61
2023-02-23T14:28:29.944Z,76.61
2023-02-23T14:29:32.046Z,76.68
2023-02-23T14:30:34.074Z,76.58
2023-02-23T14:31:36.331Z,76.48
2023-02-23T14:32:37.374Z,76.28
2023-02-23T14:33:39.372Z,76.37
2023-02-23T14:34:41.376Z,76.07
2023-02-23T14:35:43.415Z,76.07
2023-02-23T14:36:45.429Z,76.78
2023-02-23T14:37:47.462Z,76.37
2023-02-23T14:38:49.472Z,75.97
2023-02-23T14:39:51.511Z,75.93
2023-02-23T14:40:53.567Z,76.03
2023-02-23T14:41:55.568Z,75.93
2023-02-23T14:42:57.595Z,76.07
2023-02-23T14:43:59.621Z,76.37
2023-02-23T14:45:01.637Z,76.48
2023-02-23T14:46:03.642Z,76.48
2023-02-23T14:47:05.666Z,76.48
2023-02-23T14:48:07.709Z,76.61
2023-02-23T14:49:09.702Z,76.72
2023-02-23T14:50:11.686Z,77.02
2023-02-23T14:51:16.570Z,77.33
2023-02-23T14:52:15.464Z,77.63
2023-02-23T14:53:17.481Z,77.94
2023-02-23T14:54:19.501Z,78.35
2023-02-23T14:55:21.533Z,78.38
2023-02-23T14:56:28.076Z,78.08
2023-02-23T14:57:24.982Z,78.58
2023-02-23T14:58:27.033Z,78.79
2023-02-23T14:59:29.055Z,79.10
2023-02-23T15:00:31.090Z,78.79
2023-02-23T15:01:33.114Z,78.83
2023-02-23T15:02:40.794Z,79.03
2023-02-23T15:03:36.582Z,79.33
2023-02-23T15:04:38.754Z,79.44
2023-02-23T15:05:39.718Z,79.33
2023-02-23T15:06:42.522Z,79.64
2023-02-23T15:07:43.485Z,79.74
2023-02-23T15:08:45.563Z,80.15
2023-02-23T15:09:47.604Z,80.05
2023-02-23T15:10:49.602Z,80.15
2023-02-23T15:11:51.611Z,80.46
2023-02-23T15:12:53.643Z,80.56
2023-02-23T15:13:55.669Z,80.66
2023-02-23T15:14:57.681Z,80.56
2023-02-23T15:15:59.726Z,80.66
2023-02-23T15:17:01.705Z,81.21
2023-02-23T15:18:03.742Z,80.90
2023-02-23T15:19:05.796Z,81.21
2023-02-23T15:20:15.852Z,81.10
2023-02-23T15:21:09.273Z,81.21
2023-02-23T15:22:11.330Z,81.41
2023-02-23T15:23:13.421Z,81.51
2023-02-23T15:24:15.428Z,81.71
2023-02-23T15:25:17.467Z,81.82
2023-02-23T15:26:24.500Z,81.71
2023-02-23T15:27:20.914Z,81.71
2023-02-23T15:28:22.957Z,81.92
2023-02-23T15:29:25.009Z,81.92
2023-02-23T15:30:27.037Z,81.82
2023-02-23T15:31:29.112Z,82.23
2023-02-23T15:32:31.245Z,82.43
2023-02-23T15:33:33.314Z,82.06
2023-02-23T15:34:35.383Z,82.37
2023-02-23T15:35:37.411Z,82.47
2023-02-23T15:36:39.439Z,82.37
2023-02-23T15:37:41.459Z,82.47
2023-02-23T15:38:44.430Z,82.37
2023-02-23T15:39:45.530Z,82.26
2023-02-23T15:40:47.578Z,82.47
2023-02-23T15:41:49.577Z,82.37
2023-02-23T15:42:51.605Z,82.47
2023-02-23T15:43:53.639Z,82.47
2023-02-23T15:44:55.659Z,82.37
2023-02-23T15:45:57.710Z,82.26
2023-02-23T15:46:59.746Z,82.26
2023-02-23T15:48:01.757Z,82.47
2023-02-23T15:49:03.769Z,82.77
2023-02-23T15:50:05.810Z,83.28
2023-02-23T15:51:07.820Z,83.28
2023-02-23T15:52:09.879Z,83.12
2023-02-23T15:53:11.904Z,83.32
2023-02-23T15:54:14.041Z,83.42
2023-02-23T15:55:16.113Z,83.42
2023-02-23T15:56:18.127Z,83.94
2023-02-23T15:57:20.166Z,83.73
2023-02-23T15:58:22.194Z,83.94
2023-02-23T15:59:24.314Z,84.85
2023-02-23T16:00:26.312Z,85.05
2023-02-23T16:01:28.326Z,85.10
2023-02-23T16:02:30.373Z,86.32
2023-02-23T16:03:32.449Z,86.46
2023-02-23T16:04:34.530Z,86.57
2023-02-23T16:05:41.781Z,87.12
2023-02-23T16:06:38.059Z,87.63
2023-02-23T16:07:40.064Z,87.98
2023-02-23T16:08:42.078Z,88.59
2023-02-23T16:09:44.152Z,89.14
2023-02-23T16:10:46.168Z,89.24
2023-02-23T16:11:48.191Z,89.45
2023-02-23T16:12:50.205Z,89.86
2023-02-23T16:13:52.219Z,89.96
2023-02-23T16:14:55.104Z,90.00
2023-02-23T16:15:56.210Z,90.41
2023-02-23T16:17:10.449Z,90.41
2023-02-23T16:17:59.652Z,90.20
2023-02-23T16:19:01.675Z,90.20
2023-02-23T16:20:03.698Z,90.10
2023-02-23T16:21:05.729Z,90.20
2023-02-23T16:22:07.795Z,89.90
2023-02-23T16:23:09.800Z,90.31
2023-02-23T16:24:11.819Z,90.20
2023-02-23T16:25:13.829Z,90.16
2023-02-23T16:26:15.875Z,90.41
